createdAt,value
2018-01-08T00:00:48.853Z,8.81
2018-01-08T00:01:48.868Z,8.66
2018-01-08T00:02:48.933Z,8.76
2018-01-08T00:03:48.663Z,8.73
2018-01-08T00:04:48.652Z,8.64
2018-01-08T00:05:48.935Z,8.71
2018-01-08T00:06:48.934Z,8.53
2018-01-08T00:07:48.724Z,8.61
2018-01-08T00:08:48.985Z,8.69
2018-01-08T00:09:48.994Z,8.76
2018-01-08T00:10:49.018Z,8.7
2018-01-08T00:11:49.036Z,8.67
2018-01-08T00:12:49.033Z,8.63
2018-01-08T00:13:49.070Z,8.7
2018-01-08T00:14:49.086Z,8.6
2018-01-08T00:15:49.096Z,8.63
2018-01-08T00:16:49.103Z,8.69
2018-01-08T00:17:49.174Z,8.67
2018-01-08T00:18:48.641Z,8.73
2018-01-08T00:19:48.908Z,8.69
2018-01-08T00:20:48.915Z,8.73
2018-01-08T00:21:48.934Z,8.64
2018-01-08T00:22:48.952Z,8.67
2018-01-08T00:23:48.977Z,8.6
2018-01-08T00:24:48.981Z,8.48
2018-01-08T00:25:48.997Z,8.46
2018-01-08T00:26:49.024Z,8.49
2018-01-08T00:27:49.281Z,8.37
2018-01-08T00:28:49.304Z,8.46
2018-01-08T00:29:49.068Z,8.48
2018-01-08T00:30:49.082Z,8.44
2018-01-08T00:31:49.354Z,8.36
2018-01-08T00:32:49.385Z,8.38
2018-01-08T00:33:49.390Z,8.48
2018-01-08T00:34:49.450Z,8.58
2018-01-08T00:35:49.415Z,8.48
2018-01-08T00:36:48.930Z,8.45
2018-01-08T00:37:49.455Z,8.49
2018-01-08T00:38:49.465Z,8.45
2018-01-08T00:39:49.235Z,8.38
2018-01-08T00:40:49.499Z,8.41
2018-01-08T00:41:49.267Z,8.2
2018-01-08T00:42:49.604Z,8.27
2018-01-08T00:43:49.553Z,8.27
2018-01-08T00:44:49.065Z,8.31
2018-01-08T00:45:49.588Z,8.33
2018-01-08T00:46:49.350Z,8.37
2018-01-08T00:47:49.618Z,8.28
2018-01-08T00:48:49.382Z,8.3
2018-01-08T00:49:49.800Z,8.31
2018-01-08T00:50:49.674Z,8.42
2018-01-08T00:51:49.434Z,8.48
2018-01-08T00:52:49.718Z,8.33
2018-01-08T00:53:49.716Z,8.38
2018-01-08T00:54:49.743Z,8.51
2018-01-08T00:55:49.498Z,8.64
2018-01-08T00:56:49.262Z,8.6
2018-01-08T00:57:49.532Z,8.56
2018-01-08T00:58:49.803Z,8.67
2018-01-08T00:59:49.569Z,8.41
2018-01-08T01:00:49.579Z,8.49
2018-01-08T01:01:49.850Z,8.52
2018-01-08T01:02:49.613Z,8.7
2018-01-08T01:03:49.879Z,8.67
2018-01-08T01:04:49.997Z,8.69
2018-01-08T01:05:49.911Z,8.79
2018-01-08T01:06:49.937Z,8.67
2018-01-08T01:07:49.693Z,8.63
2018-01-08T01:08:49.713Z,8.71
2018-01-08T01:09:49.989Z,8.67
2018-01-08T01:10:49.740Z,8.63
2018-01-08T01:11:50.011Z,8.56
2018-01-08T01:12:49.526Z,8.63
2018-01-08T01:13:49.789Z,8.67
2018-01-08T01:14:50.068Z,8.7
2018-01-08T01:15:50.074Z,8.71
2018-01-08T01:16:50.093Z,8.71
2018-01-08T01:17:49.908Z,8.6
2018-01-08T01:18:49.872Z,8.53
2018-01-08T01:19:50.199Z,8.58
2018-01-08T01:20:49.914Z,8.51
2018-01-08T01:21:50.178Z,8.51
2018-01-08T01:22:49.941Z,8.55
2018-01-08T01:23:50.215Z,8.55
2018-01-08T01:24:50.244Z,8.49
2018-01-08T01:25:49.993Z,8.44
2018-01-08T01:26:50.016Z,8.46
2018-01-08T01:27:50.050Z,8.46
2018-01-08T01:28:50.297Z,8.46
2018-01-08T01:29:49.808Z,8.45
2018-01-08T01:30:50.331Z,8.46
2018-01-08T01:31:50.346Z,8.48
2018-01-08T01:32:50.109Z,8.44
2018-01-08T01:33:50.127Z,8.55
2018-01-08T01:34:50.473Z,8.66
2018-01-08T01:35:50.413Z,8.58
2018-01-08T01:36:50.463Z,8.71
2018-01-08T01:37:50.451Z,8.67
2018-01-08T01:38:50.460Z,8.7
2018-01-08T01:39:49.981Z,8.69
2018-01-08T01:40:50.243Z,8.46
2018-01-08T01:41:50.516Z,8.63
2018-01-08T01:42:50.530Z,8.53
2018-01-08T01:43:50.296Z,8.58
2018-01-08T01:44:50.660Z,8.51
2018-01-08T01:45:50.080Z,8.48
2018-01-08T01:46:50.339Z,8.48
2018-01-08T01:47:50.605Z,8.51
2018-01-08T01:48:50.374Z,8.56
2018-01-08T01:49:50.640Z,8.46
2018-01-08T01:50:50.654Z,8.45
2018-01-08T01:51:50.676Z,8.46
2018-01-08T01:52:50.435Z,8.38
2018-01-08T01:53:50.718Z,8.34
2018-01-08T01:54:50.467Z,8.41
2018-01-08T01:55:50.739Z,8.49
2018-01-08T01:56:50.758Z,8.58
2018-01-08T01:57:50.774Z,8.64
2018-01-08T01:58:50.541Z,8.7
2018-01-08T01:59:50.860Z,8.7
2018-01-08T02:00:50.822Z,8.76
2018-01-08T02:01:50.839Z,8.66
2018-01-08T02:02:50.856Z,8.69
2018-01-08T02:03:50.621Z,8.61
2018-01-08T02:04:50.887Z,8.69
2018-01-08T02:05:50.911Z,8.66
2018-01-08T02:06:50.671Z,8.67
2018-01-08T02:07:50.944Z,8.66
2018-01-08T02:08:50.957Z,8.66
2018-01-08T02:09:50.465Z,8.51
2018-01-08T02:10:50.734Z,8.64
2018-01-08T02:11:51.004Z,8.73
2018-01-08T02:12:50.771Z,8.73
2018-01-08T02:13:51.057Z,8.71
2018-01-08T02:14:50.855Z,8.67
2018-01-08T02:15:50.822Z,8.76
2018-01-08T02:16:50.833Z,8.76
2018-01-08T02:17:51.102Z,8.69
2018-01-08T02:18:50.872Z,8.81
2018-01-08T02:19:50.880Z,8.76
2018-01-08T02:20:50.901Z,8.7
2018-01-08T02:21:50.910Z,8.73
2018-01-08T02:22:50.927Z,8.67
2018-01-08T02:23:50.950Z,8.69
2018-01-08T02:24:51.226Z,8.73
2018-01-08T02:25:51.243Z,8.67
2018-01-08T02:26:51.000Z,8.64
2018-01-08T02:27:51.267Z,8.69
2018-01-08T02:28:51.285Z,8.73
2018-01-08T02:29:51.100Z,8.76
2018-01-08T02:30:51.065Z,8.81
2018-01-08T02:31:51.336Z,8.69
2018-01-08T02:32:51.354Z,8.69
2018-01-08T02:33:51.371Z,8.64
2018-01-08T02:34:51.136Z,8.66
2018-01-08T02:35:51.150Z,8.73
2018-01-08T02:36:51.164Z,8.78
2018-01-08T02:37:51.198Z,8.88
2018-01-08T02:38:51.451Z,8.79
2018-01-08T02:39:51.469Z,8.84
2018-01-08T02:40:51.241Z,8.84
2018-01-08T02:41:51.503Z,8.74
2018-01-08T02:42:51.521Z,8.76
2018-01-08T02:43:51.284Z,8.76
2018-01-08T02:44:51.348Z,8.67
2018-01-08T02:45:51.569Z,8.67
2018-01-08T02:46:51.593Z,8.71
2018-01-08T02:47:51.599Z,8.81
2018-01-08T02:48:51.628Z,8.66
2018-01-08T02:49:51.632Z,8.78
2018-01-08T02:50:51.649Z,8.78
2018-01-08T02:51:51.666Z,8.85
2018-01-08T02:52:51.686Z,8.7
2018-01-08T02:53:51.700Z,8.78
2018-01-08T02:54:51.721Z,8.53
2018-01-08T02:55:51.744Z,8.46
2018-01-08T02:56:51.496Z,8.36
2018-01-08T02:57:51.774Z,8.13
2018-01-08T02:58:51.533Z,8.13
2018-01-08T02:59:51.850Z,8.28
2018-01-08T03:00:51.816Z,8.31
2018-01-08T03:01:51.828Z,8.37
2018-01-08T03:02:51.847Z,8.27
2018-01-08T03:03:51.871Z,8.27
2018-01-08T03:04:51.935Z,8.16
2018-01-08T03:05:51.642Z,8.26
2018-01-08T03:06:51.915Z,8.18
2018-01-08T03:07:51.683Z,8.31
2018-01-08T03:08:51.951Z,8.38
2018-01-08T03:09:51.762Z,8.49
2018-01-08T03:10:51.978Z,8.48
2018-01-08T03:11:51.742Z,8.52
2018-01-08T03:12:51.760Z,8.63
2018-01-08T03:13:51.778Z,8.64
2018-01-08T03:14:51.893Z,8.55
2018-01-08T03:15:52.063Z,8.53
2018-01-08T03:16:51.828Z,8.53
2018-01-08T03:17:52.095Z,8.55
2018-01-08T03:18:52.114Z,8.41
2018-01-08T03:19:51.875Z,8.51
2018-01-08T03:20:52.145Z,8.44
2018-01-08T03:21:51.914Z,8.45
2018-01-08T03:22:52.225Z,8.48
2018-01-08T03:23:51.941Z,8.51
2018-01-08T03:24:52.265Z,8.6
2018-01-08T03:25:51.977Z,8.58
2018-01-08T03:26:51.991Z,8.6
2018-01-08T03:27:52.264Z,8.67
2018-01-08T03:28:52.020Z,8.7
2018-01-08T03:29:52.042Z,8.73
2018-01-08T03:30:52.059Z,8.76
2018-01-08T03:31:52.076Z,8.73
2018-01-08T03:32:52.344Z,8.69
2018-01-08T03:33:52.116Z,8.61
2018-01-08T03:34:52.128Z,8.6
2018-01-08T03:35:52.140Z,8.49
2018-01-08T03:36:52.160Z,8.49
2018-01-08T03:37:52.167Z,8.49
2018-01-08T03:38:51.934Z,8.63
2018-01-08T03:39:52.263Z,8.67
2018-01-08T03:40:52.474Z,8.67
2018-01-08T03:41:52.494Z,8.73
2018-01-08T03:42:52.516Z,8.69
2018-01-08T03:43:52.274Z,8.7
2018-01-08T03:44:52.288Z,8.55
2018-01-08T03:45:52.560Z,8.52
2018-01-08T03:46:52.067Z,8.56
2018-01-08T03:47:52.599Z,8.6
2018-01-08T03:48:52.604Z,8.69
2018-01-08T03:49:52.623Z,8.63
2018-01-08T03:50:52.642Z,8.6
2018-01-08T03:51:52.655Z,8.49
2018-01-08T03:52:52.425Z,8.56
2018-01-08T03:53:52.435Z,8.51
2018-01-08T03:54:52.506Z,8.67
2018-01-08T03:55:52.719Z,8.61
2018-01-08T03:56:52.748Z,8.7
2018-01-08T03:57:52.756Z,8.7
2018-01-08T03:58:52.519Z,8.48
2018-01-08T03:59:52.536Z,8.51
2018-01-08T04:00:52.805Z,8.48
2018-01-08T04:01:52.566Z,8.49
2018-01-08T04:02:52.580Z,8.44
2018-01-08T04:03:52.854Z,8.41
2018-01-08T04:04:52.626Z,8.48
2018-01-08T04:05:52.633Z,8.52
2018-01-08T04:06:52.653Z,8.33
2018-01-08T04:07:52.671Z,8.51
2018-01-08T04:08:52.938Z,8.55
2018-01-08T04:09:52.997Z,8.69
2018-01-08T04:10:52.702Z,8.6
2018-01-08T04:11:52.724Z,8.73
2018-01-08T04:12:52.988Z,8.55
2018-01-08T04:13:52.764Z,8.56
2018-01-08T04:14:52.780Z,8.34
2018-01-08T04:15:53.045Z,8.44
2018-01-08T04:16:53.060Z,8.42
2018-01-08T04:17:53.082Z,8.36
2018-01-08T04:18:53.102Z,8.49
2018-01-08T04:19:52.863Z,8.41
2018-01-08T04:20:53.133Z,8.19
2018-01-08T04:21:52.898Z,8.08
2018-01-08T04:22:53.162Z,8.09
2018-01-08T04:23:52.930Z,8.03
2018-01-08T04:24:53.249Z,8.06
2018-01-08T04:25:53.298Z,8.08
2018-01-08T04:26:52.975Z,8.18
2018-01-08T04:27:52.991Z,8.15
2018-01-08T04:28:53.257Z,8.15
2018-01-08T04:29:53.023Z,8.27
2018-01-08T04:30:53.300Z,8.18
2018-01-08T04:31:53.316Z,8.26
2018-01-08T04:32:53.071Z,8.12
2018-01-08T04:33:53.346Z,8.3
2018-01-08T04:34:53.111Z,8.34
2018-01-08T04:35:53.125Z,8.44
2018-01-08T04:36:53.133Z,8.46
2018-01-08T04:37:53.416Z,8.42
2018-01-08T04:38:52.920Z,8.34
2018-01-08T04:39:52.986Z,8.26
2018-01-08T04:40:53.457Z,8.33
2018-01-08T04:41:53.223Z,8.31
2018-01-08T04:42:53.490Z,8.37
2018-01-08T04:43:53.249Z,8.3
2018-01-08T04:44:53.267Z,8.26
2018-01-08T04:45:53.537Z,8.28
2018-01-08T04:46:53.550Z,8.28
2018-01-08T04:47:53.322Z,8.23
2018-01-08T04:48:53.331Z,8.33
2018-01-08T04:49:53.347Z,8.24
2018-01-08T04:50:53.362Z,8.3
2018-01-08T04:51:53.381Z,8.33
2018-01-08T04:52:53.399Z,8.42
2018-01-08T04:53:53.669Z,8.41
2018-01-08T04:54:53.691Z,8.42
2018-01-08T04:55:53.700Z,8.6
2018-01-08T04:56:53.717Z,8.49
2018-01-08T04:57:53.500Z,8.48
2018-01-08T04:58:53.797Z,8.44
2018-01-08T04:59:53.509Z,8.2
2018-01-08T05:00:53.528Z,8.26
2018-01-08T05:01:53.291Z,8.2
2018-01-08T05:02:53.560Z,8.28
2018-01-08T05:03:53.828Z,8.24
2018-01-08T05:04:53.585Z,8.31
2018-01-08T05:05:53.854Z,8.34
2018-01-08T05:06:53.624Z,8.51
2018-01-08T05:07:53.643Z,8.38
2018-01-08T05:08:53.657Z,8.31
2018-01-08T05:09:53.934Z,8.23
2018-01-08T05:10:53.691Z,8.33
2018-01-08T05:11:53.971Z,8.3
2018-01-08T05:12:53.725Z,8.24
2018-01-08T05:13:54.045Z,8.31
2018-01-08T05:14:53.760Z,8.16
2018-01-08T05:15:54.023Z,8.27
2018-01-08T05:16:54.041Z,8.19
2018-01-08T05:17:53.805Z,8.19
2018-01-08T05:18:54.073Z,8.16
2018-01-08T05:19:53.849Z,8.16
2018-01-08T05:20:53.601Z,8.33
2018-01-08T05:21:53.876Z,8.37
2018-01-08T05:22:53.890Z,8.36
2018-01-08T05:23:54.260Z,8.38
2018-01-08T05:24:54.174Z,8.37
2018-01-08T05:25:53.937Z,8.49
2018-01-08T05:26:53.952Z,8.48
2018-01-08T05:27:53.717Z,8.37
2018-01-08T05:28:53.782Z,8.46
2018-01-08T05:29:54.272Z,8.46
2018-01-08T05:30:54.016Z,8.49
2018-01-08T05:31:54.284Z,8.33
2018-01-08T05:32:54.399Z,8.26
2018-01-08T05:33:54.061Z,8.33
2018-01-08T05:34:54.126Z,8.41
2018-01-08T05:35:54.350Z,8.34
2018-01-08T05:36:54.116Z,8.41
2018-01-08T05:37:54.380Z,8.37
2018-01-08T05:38:54.147Z,8.31
2018-01-08T05:39:54.165Z,8.2
2018-01-08T05:40:54.434Z,8.13
2018-01-08T05:41:54.205Z,8.03
2018-01-08T05:42:54.211Z,8.16
2018-01-08T05:43:54.276Z,8.19
2018-01-08T05:44:54.241Z,8.13
2018-01-08T05:45:54.261Z,8.1
2018-01-08T05:46:54.309Z,8.19
2018-01-08T05:47:54.285Z,8.24
2018-01-08T05:48:54.557Z,8.12
2018-01-08T05:49:54.067Z,8.08
2018-01-08T05:50:54.591Z,8.15
2018-01-08T05:51:54.358Z,8.1
2018-01-08T05:52:54.375Z,8.06
2018-01-08T05:53:54.394Z,8
2018-01-08T05:54:54.406Z,8.15
2018-01-08T05:55:54.426Z,8.16
2018-01-08T05:56:54.438Z,8.05
2018-01-08T05:57:54.706Z,7.93
2018-01-08T05:58:54.521Z,7.9
2018-01-08T05:59:54.488Z,7.88
2018-01-08T06:00:54.759Z,7.93
2018-01-08T06:01:54.790Z,7.94
2018-01-08T06:02:54.793Z,7.87
2018-01-08T06:03:54.815Z,7.91
2018-01-08T06:04:54.569Z,7.93
2018-01-08T06:05:54.836Z,7.98
2018-01-08T06:06:54.851Z,7.98
2018-01-08T06:07:54.613Z,7.95
2018-01-08T06:08:54.886Z,7.91
2018-01-08T06:09:54.649Z,7.95
2018-01-08T06:10:54.694Z,8.03
2018-01-08T06:11:54.684Z,7.97
2018-01-08T06:12:54.464Z,8.18
2018-01-08T06:13:55.017Z,8.16
2018-01-08T06:14:54.986Z,8.16
2018-01-08T06:15:54.745Z,8.12
2018-01-08T06:16:55.014Z,7.95
2018-01-08T06:17:55.028Z,7.94
2018-01-08T06:18:55.051Z,7.82
2018-01-08T06:19:54.808Z,7.85
2018-01-08T06:20:54.824Z,7.94
2018-01-08T06:21:55.097Z,7.88
2018-01-08T06:22:54.857Z,7.82
2018-01-08T06:23:55.142Z,7.88
2018-01-08T06:24:55.145Z,7.91
2018-01-08T06:25:55.161Z,7.88
2018-01-08T06:26:55.180Z,7.87
2018-01-08T06:27:54.940Z,7.79
2018-01-08T06:28:55.008Z,7.73
2018-01-08T06:29:54.977Z,7.79
2018-01-08T06:30:54.985Z,7.76
2018-01-08T06:31:55.257Z,7.69
2018-01-08T06:32:55.024Z,7.73
2018-01-08T06:33:55.296Z,7.77
2018-01-08T06:34:55.456Z,7.66
2018-01-08T06:35:55.072Z,7.53
2018-01-08T06:36:55.339Z,7.56
2018-01-08T06:37:55.357Z,7.72
2018-01-08T06:38:55.372Z,7.67
2018-01-08T06:39:55.393Z,7.67
2018-01-08T06:40:55.402Z,7.75
2018-01-08T06:41:55.416Z,7.91
2018-01-08T06:42:55.180Z,7.88
2018-01-08T06:43:55.453Z,7.98
2018-01-08T06:44:55.516Z,8.09
2018-01-08T06:45:55.492Z,7.9
2018-01-08T06:46:55.502Z,8.01
2018-01-08T06:47:55.515Z,7.98
2018-01-08T06:48:55.280Z,7.93
2018-01-08T06:49:55.549Z,7.83
2018-01-08T06:50:55.563Z,7.85
2018-01-08T06:51:55.577Z,7.94
2018-01-08T06:52:55.595Z,7.98
2018-01-08T06:53:55.611Z,8.09
2018-01-08T06:54:55.374Z,8.01
2018-01-08T06:55:55.399Z,8.05
2018-01-08T06:56:55.668Z,8.01
2018-01-08T06:57:55.688Z,8.06
2018-01-08T06:58:55.442Z,8.06
2018-01-08T06:59:55.756Z,8.09
2018-01-08T07:00:55.724Z,8.09
2018-01-08T07:01:55.738Z,8.05
2018-01-08T07:02:55.757Z,7.85
2018-01-08T07:03:55.775Z,7.87
2018-01-08T07:04:55.792Z,7.69
2018-01-08T07:05:55.653Z,7.87
2018-01-08T07:06:55.567Z,7.76
2018-01-08T07:07:55.848Z,7.8
2018-01-08T07:08:55.858Z,7.77
2018-01-08T07:09:55.867Z,7.73
2018-01-08T07:10:55.932Z,7.83
2018-01-08T07:11:55.648Z,7.85
2018-01-08T07:12:55.662Z,7.77
2018-01-08T07:13:55.933Z,7.61
2018-01-08T07:14:55.954Z,7.7
2018-01-08T07:15:56.017Z,7.76
2018-01-08T07:16:55.474Z,7.9
2018-01-08T07:17:56.000Z,7.93
2018-01-08T07:18:56.014Z,8.05
2018-01-08T07:19:56.036Z,7.97
2018-01-08T07:20:55.796Z,8.08
2018-01-08T07:21:55.810Z,8.12
2018-01-08T07:22:56.082Z,7.95
2018-01-08T07:23:55.846Z,7.82
2018-01-08T07:24:56.113Z,7.66
2018-01-08T07:25:56.128Z,7.77
2018-01-08T07:26:56.148Z,7.7
2018-01-08T07:27:56.157Z,7.76
2018-01-08T07:28:55.928Z,7.77
2018-01-08T07:29:56.195Z,7.82
2018-01-08T07:30:56.259Z,7.79
2018-01-08T07:31:55.724Z,7.83
2018-01-08T07:32:56.239Z,7.91
2018-01-08T07:33:56.008Z,7.8
2018-01-08T07:34:56.021Z,7.7
2018-01-08T07:35:56.036Z,7.9
2018-01-08T07:36:56.051Z,7.83
2018-01-08T07:37:56.321Z,7.73
2018-01-08T07:38:56.080Z,7.82
2018-01-08T07:39:56.358Z,7.63
2018-01-08T07:40:56.117Z,7.66
2018-01-08T07:41:56.138Z,7.57
2018-01-08T07:42:56.397Z,7.5
2018-01-08T07:43:56.164Z,7.6
2018-01-08T07:44:56.434Z,7.57
2018-01-08T07:45:56.499Z,7.63
2018-01-08T07:46:56.214Z,7.7
2018-01-08T07:47:56.229Z,7.72
2018-01-08T07:48:56.499Z,7.69
2018-01-08T07:49:56.517Z,7.7
2018-01-08T07:50:56.276Z,7.82
2018-01-08T07:51:56.550Z,7.73
2018-01-08T07:52:56.565Z,7.7
2018-01-08T07:53:56.585Z,7.7
2018-01-08T07:54:56.359Z,7.77
2018-01-08T07:55:56.107Z,7.94
2018-01-08T07:56:56.379Z,7.8
2018-01-08T07:57:56.639Z,7.66
2018-01-08T07:58:56.652Z,7.56
2018-01-08T07:59:56.167Z,7.54
2018-01-08T08:00:56.739Z,7.47
2018-01-08T08:01:56.706Z,7.57
2018-01-08T08:02:56.469Z,7.51
2018-01-08T08:03:56.494Z,7.58
2018-01-08T08:04:56.525Z,7.43
2018-01-08T08:05:56.785Z,7.47
2018-01-08T08:06:56.790Z,7.54
2018-01-08T08:07:56.805Z,7.42
2018-01-08T08:08:56.831Z,7.39
2018-01-08T08:09:56.838Z,7.38
2018-01-08T08:10:56.854Z,7.36
2018-01-08T08:11:56.865Z,7.43
2018-01-08T08:12:56.880Z,7.43
2018-01-08T08:13:56.641Z,7.56
2018-01-08T08:14:56.666Z,7.63
2018-01-08T08:15:56.984Z,7.73
2018-01-08T08:16:56.699Z,7.57
2018-01-08T08:17:56.711Z,7.69
2018-01-08T08:18:56.981Z,7.75
2018-01-08T08:19:56.992Z,7.73
2018-01-08T08:20:57.012Z,7.66
2018-01-08T08:21:56.774Z,7.76
2018-01-08T08:22:57.044Z,7.79
2018-01-08T08:23:56.807Z,7.61
2018-01-08T08:24:56.572Z,7.7
2018-01-08T08:25:56.836Z,7.57
2018-01-08T08:26:56.880Z,7.61
2018-01-08T08:27:57.128Z,7.53
2018-01-08T08:28:56.883Z,7.53
2018-01-08T08:29:57.154Z,7.51
2018-01-08T08:30:56.813Z,7.53
2018-01-08T08:31:56.935Z,7.6
2018-01-08T08:32:57.248Z,7.72
2018-01-08T08:33:56.966Z,7.56
2018-01-08T08:34:56.968Z,7.6
2018-01-08T08:35:57.248Z,7.56
2018-01-08T08:36:56.744Z,7.6
2018-01-08T08:37:57.266Z,7.67
2018-01-08T08:38:57.028Z,7.79
2018-01-08T08:39:57.062Z,7.85
2018-01-08T08:40:57.080Z,7.88
2018-01-08T08:41:57.353Z,8
2018-01-08T08:42:57.110Z,7.91
2018-01-08T08:43:56.872Z,8.08
2018-01-08T08:44:57.140Z,8.09
2018-01-08T08:45:57.160Z,8.1
2018-01-08T08:46:57.423Z,7.9
2018-01-08T08:47:58.692Z,7.76
2018-01-08T08:48:56.952Z,7.72
2018-01-08T08:49:57.479Z,7.83
2018-01-08T08:50:57.493Z,7.88
2018-01-08T08:51:57.506Z,7.88
2018-01-08T08:52:57.524Z,8.09
2018-01-08T08:53:57.538Z,8
2018-01-08T08:54:57.307Z,7.94
2018-01-08T08:55:57.568Z,7.79
2018-01-08T08:56:57.334Z,7.67
2018-01-08T08:57:57.352Z,7.76
2018-01-08T08:58:57.114Z,7.76
2018-01-08T08:59:57.639Z,7.79
2018-01-08T09:00:57.163Z,7.72
2018-01-08T09:01:57.418Z,7.8
2018-01-08T09:02:57.428Z,7.87
2018-01-08T09:03:57.449Z,7.93
2018-01-08T09:04:57.722Z,7.87
2018-01-08T09:05:57.228Z,7.7
2018-01-08T09:06:57.496Z,7.77
2018-01-08T09:07:58.854Z,7.39
2018-01-08T09:08:57.576Z,7.53
2018-01-08T09:09:57.542Z,7.39
2018-01-08T09:10:57.814Z,7.5
2018-01-08T09:11:57.592Z,7.47
2018-01-08T09:12:57.846Z,7.42
2018-01-08T09:13:57.865Z,7.48
2018-01-08T09:14:57.890Z,7.58
2018-01-08T09:15:57.899Z,7.5
2018-01-08T09:16:57.915Z,7.6
2018-01-08T09:17:57.677Z,7.66
2018-01-08T09:18:57.944Z,7.67
2018-01-08T09:19:57.972Z,7.73
2018-01-08T09:20:57.980Z,7.82
2018-01-08T09:21:57.738Z,7.77
2018-01-08T09:22:57.766Z,7.9
2018-01-08T09:23:58.075Z,7.83
2018-01-08T09:24:57.790Z,7.72
2018-01-08T09:25:58.060Z,7.79
2018-01-08T09:26:57.823Z,7.58
2018-01-08T09:27:58.096Z,7.6
2018-01-08T09:28:58.113Z,7.69
2018-01-08T09:29:57.621Z,7.85
2018-01-08T09:30:57.886Z,7.98
2018-01-08T09:31:58.157Z,7.87
2018-01-08T09:32:57.670Z,7.91
2018-01-08T09:33:58.040Z,7.87
2018-01-08T09:34:58.212Z,7.98
2018-01-08T09:35:57.972Z,8.18
2018-01-08T09:36:58.258Z,8.19
2018-01-08T09:37:58.259Z,8.15
2018-01-08T09:38:58.074Z,8.09
2018-01-08T09:39:58.294Z,8.15
2018-01-08T09:40:58.058Z,7.98
2018-01-08T09:41:58.326Z,7.91
2018-01-08T09:42:58.090Z,8.16
2018-01-08T09:43:58.376Z,8.05
2018-01-08T09:44:58.384Z,8.05
2018-01-08T09:45:58.393Z,8.08
2018-01-08T09:46:58.427Z,8.18
2018-01-08T09:47:57.920Z,8.23
2018-01-08T09:48:58.196Z,8.2
2018-01-08T09:49:58.460Z,8.28
2018-01-08T09:50:58.554Z,8.28
2018-01-08T09:51:58.496Z,8.27
2018-01-08T09:52:58.016Z,8.31
2018-01-08T09:53:58.582Z,8.28
2018-01-08T09:54:58.541Z,8.46
2018-01-08T09:55:58.558Z,8.67
2018-01-08T09:56:58.589Z,8.64
2018-01-08T09:57:58.596Z,8.74
2018-01-08T09:58:58.610Z,8.87
2018-01-08T09:59:58.628Z,8.89
2018-01-08T10:00:58.705Z,8.97
2018-01-08T10:01:58.659Z,8.94
2018-01-08T10:02:58.677Z,9.04
2018-01-08T10:03:58.746Z,9.08
2018-01-08T10:04:58.458Z,9.21
2018-01-08T10:05:58.476Z,9.06
2018-01-08T10:06:58.240Z,9
2018-01-08T10:07:58.767Z,9
2018-01-08T10:08:58.586Z,9.11
2018-01-08T10:09:58.807Z,8.89
2018-01-08T10:10:58.564Z,8.99
2018-01-08T10:11:58.837Z,9.11
2018-01-08T10:12:58.601Z,9.04
2018-01-08T10:13:58.616Z,9.18
2018-01-08T10:14:58.638Z,9.18
2018-01-08T10:15:58.914Z,9.16
2018-01-08T10:16:58.674Z,9.19
2018-01-08T10:17:58.944Z,9.1
2018-01-08T10:18:58.454Z,9.03
2018-01-08T10:19:58.719Z,8.92
2018-01-08T10:20:58.996Z,8.99
2018-01-08T10:21:58.752Z,8.95
2018-01-08T10:22:59.028Z,8.99
2018-01-08T10:23:58.844Z,8.99
2018-01-08T10:24:59.061Z,8.78
2018-01-08T10:25:58.826Z,8.66
2018-01-08T10:26:58.843Z,8.6
2018-01-08T10:27:58.859Z,8.44
2018-01-08T10:28:59.128Z,8.55
2018-01-08T10:29:58.894Z,8.61
2018-01-08T10:30:59.167Z,8.74
2018-01-08T10:31:59.177Z,8.66
2018-01-08T10:32:59.198Z,8.66
2018-01-08T10:33:58.961Z,8.6
2018-01-08T10:34:59.231Z,8.6
2018-01-08T10:35:59.250Z,8.67
2018-01-08T10:36:59.265Z,8.56
2018-01-08T10:37:59.285Z,8.41
2018-01-08T10:38:59.095Z,8.56
2018-01-08T10:39:59.067Z,8.55
2018-01-08T10:40:59.080Z,8.61
2018-01-08T10:41:58.844Z,8.58
2018-01-08T10:42:59.117Z,8.38
2018-01-08T10:43:59.134Z,8.2
2018-01-08T10:44:59.409Z,8.19
2018-01-08T10:45:59.419Z,8.28
2018-01-08T10:46:59.447Z,8.38
2018-01-08T10:47:59.452Z,8.38
2018-01-08T10:48:59.219Z,8.3
2018-01-08T10:49:59.232Z,8.24
2018-01-08T10:50:59.505Z,8.34
2018-01-08T10:51:59.521Z,8.31
2018-01-08T10:52:59.288Z,8.49
2018-01-08T10:53:59.303Z,8.6
2018-01-08T10:54:59.118Z,8.78
2018-01-08T10:55:59.339Z,8.91
2018-01-08T10:56:59.611Z,8.78
2018-01-08T10:57:59.370Z,8.87
2018-01-08T10:58:59.638Z,9
2018-01-08T10:59:59.410Z,8.94
2018-01-08T11:00:59.423Z,9.02
2018-01-08T11:01:59.440Z,8.85
2018-01-08T11:02:59.708Z,8.97
2018-01-08T11:03:59.725Z,8.87
2018-01-08T11:04:59.288Z,8.95
2018-01-08T11:05:59.763Z,9.18
2018-01-08T11:06:59.528Z,9.23
2018-01-08T11:07:59.542Z,9.32
2018-01-08T11:08:59.562Z,9.31
2018-01-08T11:09:59.627Z,9.21
2018-01-08T11:10:59.340Z,9.31
2018-01-08T11:11:59.624Z,9.22
2018-01-08T11:12:59.640Z,9.19
2018-01-08T11:13:59.908Z,9.28
2018-01-08T11:14:59.670Z,9.31
2018-01-08T11:15:59.681Z,9.43
2018-01-08T11:16:59.751Z,9.34
2018-01-08T11:17:59.973Z,9.36
2018-01-08T11:18:59.986Z,9.43
2018-01-08T11:20:00.005Z,9.51
2018-01-08T11:20:59.779Z,9.65
2018-01-08T11:22:00.042Z,9.68
2018-01-08T11:23:00.058Z,9.66
2018-01-08T11:23:59.569Z,9.72
2018-01-08T11:24:59.894Z,9.61
2018-01-08T11:26:00.106Z,9.64
2018-01-08T11:27:00.126Z,9.51
2018-01-08T11:27:59.959Z,9.54
2018-01-08T11:29:00.159Z,9.5
2018-01-08T11:30:00.007Z,9.36
2018-01-08T11:30:59.946Z,9.4
2018-01-08T11:31:59.961Z,9.23
2018-01-08T11:32:59.980Z,9.14
2018-01-08T11:34:00.249Z,8.97
2018-01-08T11:35:00.021Z,9.11
2018-01-08T11:36:00.284Z,9.16
2018-01-08T11:37:00.306Z,9.1
2018-01-08T11:38:00.331Z,9.22
2018-01-08T11:39:00.086Z,9.39
2018-01-08T11:40:00.151Z,9.4
2018-01-08T11:41:00.364Z,9.4
2018-01-08T11:42:00.129Z,9.54
2018-01-08T11:43:00.404Z,9.72
2018-01-08T11:43:59.923Z,9.74
2018-01-08T11:45:00.232Z,9.89
2018-01-08T11:46:00.220Z,9.94
2018-01-08T11:47:00.224Z,9.91
2018-01-08T11:48:00.497Z,9.82
2018-01-08T11:49:00.562Z,9.77
2018-01-08T11:50:00.035Z,9.51
2018-01-08T11:51:00.546Z,9.55
2018-01-08T11:52:00.316Z,9.54
2018-01-08T11:53:00.617Z,9.54
2018-01-08T11:54:00.110Z,9.66
2018-01-08T11:55:00.163Z,9.48
2018-01-08T11:56:00.384Z,9.56
2018-01-08T11:57:00.657Z,9.72
2018-01-08T11:58:00.670Z,9.82
2018-01-08T11:59:00.691Z,9.84
2018-01-08T12:00:00.710Z,10.01
2018-01-08T12:01:00.479Z,10.02
2018-01-08T12:02:00.493Z,9.98
2018-01-08T12:03:00.785Z,10.04
2018-01-08T12:04:00.542Z,10.05
2018-01-08T12:05:00.547Z,10.1
2018-01-08T12:06:00.566Z,10.25
2018-01-08T12:07:00.833Z,10.23
2018-01-08T12:08:00.349Z,10.12
2018-01-08T12:09:00.873Z,10.05
2018-01-08T12:10:01.286Z,10.05
2018-01-08T12:11:00.403Z,9.95
2018-01-08T12:12:00.928Z,10.09
2018-01-08T12:13:00.439Z,9.98
2018-01-08T12:14:00.960Z,9.99
2018-01-08T12:15:00.729Z,10.01
2018-01-08T12:16:00.764Z,9.83
2018-01-08T12:17:00.764Z,9.65
2018-01-08T12:18:01.057Z,9.54
2018-01-08T12:19:01.056Z,9.51
2018-01-08T12:20:00.843Z,9.66
2018-01-08T12:21:01.090Z,9.64
2018-01-08T12:22:01.104Z,9.69
2018-01-08T12:23:01.223Z,9.87
2018-01-08T12:24:00.631Z,9.91
2018-01-08T12:25:00.987Z,10.07
2018-01-08T12:26:01.173Z,10.09
2018-01-08T12:27:00.944Z,10.16
2018-01-08T12:28:01.207Z,10.15
2018-01-08T12:29:00.743Z,10.01
2018-01-08T12:30:01.248Z,9.87
2018-01-08T12:31:01.007Z,9.89
2018-01-08T12:32:01.274Z,9.83
2018-01-08T12:33:01.042Z,9.73
2018-01-08T12:34:01.317Z,9.76
2018-01-08T12:35:01.079Z,9.98
2018-01-08T12:36:01.348Z,9.95
2018-01-08T12:37:01.365Z,9.97
2018-01-08T12:38:01.133Z,9.8
2018-01-08T12:39:01.155Z,10.01
2018-01-08T12:40:00.973Z,9.83
2018-01-08T12:41:00.938Z,9.84
2018-01-08T12:42:01.459Z,9.86
2018-01-08T12:43:01.229Z,9.82
2018-01-08T12:44:01.293Z,9.66
2018-01-08T12:45:01.541Z,9.72
2018-01-08T12:46:01.532Z,9.76
2018-01-08T12:47:01.297Z,9.59
2018-01-08T12:48:01.321Z,9.56
2018-01-08T12:49:01.589Z,9.54
2018-01-08T12:50:01.101Z,9.69
2018-01-08T12:51:01.625Z,9.74
2018-01-08T12:52:01.645Z,9.91
2018-01-08T12:53:01.155Z,9.98
2018-01-08T12:54:01.173Z,10.16
2018-01-08T12:55:01.754Z,10.19
2018-01-08T12:56:01.713Z,10.04
2018-01-08T12:57:01.741Z,9.95
2018-01-08T12:58:01.800Z,10.02
2018-01-08T12:59:01.776Z,10.2
2018-01-08T13:00:01.791Z,10.25
2018-01-08T13:01:01.555Z,10.05
2018-01-08T13:02:01.321Z,10.22
2018-01-08T13:03:01.589Z,10.31
2018-01-08T13:04:01.860Z,10.12
2018-01-08T13:05:01.623Z,10.17
2018-01-08T13:06:01.646Z,10.05
2018-01-08T13:07:01.921Z,10.09
2018-01-08T13:08:01.685Z,9.99
2018-01-08T13:09:01.700Z,10.05
2018-01-08T13:10:02.022Z,9.91
2018-01-08T13:11:01.999Z,9.8
2018-01-08T13:12:02.008Z,9.74
2018-01-08T13:13:01.520Z,9.89
2018-01-08T13:14:02.043Z,10.04
2018-01-08T13:15:01.556Z,10.07
2018-01-08T13:16:02.083Z,10.01
2018-01-08T13:17:02.100Z,9.84
2018-01-08T13:18:01.868Z,9.82
2018-01-08T13:19:01.887Z,9.84
2018-01-08T13:20:02.159Z,9.91
2018-01-08T13:21:01.919Z,9.82